CYXT

Terrace Airport

Terrace, , Canada
TAF CYXT 201838Z 2019/2107 18007KT P6SM FEW007 SCT020 BKN040 FM210300 19010KT P6SM FEW020 SCT040 RMK NXT FCST BY 210100Z
Issued Valid From Valid To
Jul-20 @ 18:38 UTC
(4 hours ago)
Jul-20 @ 19:00 UTC
(3 hours ago)
Jul-21 @ 07:00 UTC
(in 9 hours)
Jul-20 @ 19:00 to Jul-21 @ 03:00
TAF CYXT 201838Z 2019/2107 18007KT P6SM FEW007 SCT020 BKN040
Wind Visibility Clouds
180° at 7 knots Greater than 6 miles
  • Few at 700' AGL
  • Scattered at 2,000' AGL
  • Broken at 4,000' AGL
From Jul-21 @ 03:00 to Jul-21 @ 07:00
FM210300 19010KT P6SM FEW020 SCT040 RMK NXT FCST BY 210100Z
Wind Visibility Clouds
190° at 10 knots Greater than 6 miles
  • Few at 2,000' AGL
  • Scattered at 4,000' AGL
TAF CYXT 201838Z 2019/2107 18007KT P6SM FEW007 SCT020 BKN040 FM210300 19010KT P6SM FEW020 SCT040 RMK NXT FCST BY 210100Z
Issued Jul-20 @ 18:38 UTC
(4 hours ago)
Valid From Jul-20 @ 19:00 UTC
(3 hours ago)
Valid To Jul-21 @ 07:00 UTC
(in 9 hours)
Jul-20 @ 19:00 - Jul-21 @ 03:00
Wind Visibility
180° at 7 knots Greater than 6 miles
Clouds
  • Few at 700' AGL
  • Scattered at 2,000' AGL
  • Broken at 4,000' AGL
From Jul-21 @ 03:00 - Jul-21 @ 07:00
Wind Visibility
190° at 10 knots Greater than 6 miles
Clouds
  • Few at 2,000' AGL
  • Scattered at 4,000' AGL